Time;durP1;ratioP1;P1;durP2;ratioP2;P2;SDS_P1;SDS_P2;PMS_P1;PMS_P2;Temp;Humidity;BMP_temperature;BMP_pressure;BME280_temperature;BME280_humidity;BME280_pressure;Samples;Min_cycle;Max_cycle;Signal;HPM_P1;HPM_P2
2021/08/19 00:00:17;;;;;;;9.45;7.55;;;16.50;99.90;;;;;;5110324;28;20035;-66
2021/08/19 00:02:43;;;;;;;9.40;7.30;;;16.60;99.90;;;;;;5111022;28;20039;-66
2021/08/19 00:05:09;;;;;;;7.93;6.80;;;16.60;99.90;;;;;;5093391;28;20057;-66
2021/08/19 00:07:35;;;;;;;8.45;7.53;;;16.70;99.90;;;;;;5111198;28;20039;-66
2021/08/19 00:10:01;;;;;;;8.23;7.40;;;16.60;99.90;;;;;;5110740;28;20042;-66
2021/08/19 00:12:27;;;;;;;8.07;7.20;;;16.50;99.90;;;;;;5091162;28;20047;-66
2021/08/19 00:14:53;;;;;;;8.98;7.93;;;16.50;99.90;;;;;;5090797;28;20042;-66
2021/08/19 00:17:18;;;;;;;10.85;8.57;;;16.60;99.90;;;;;;5110826;28;20039;-66
2021/08/19 00:19:44;;;;;;;12.43;8.60;;;16.60;99.90;;;;;;5111410;28;20039;-65
2021/08/19 00:22:10;;;;;;;9.40;8.40;;;16.50;99.90;;;;;;5110303;28;20500;-65
2021/08/19 00:24:35;;;;;;;10.00;9.02;;;16.50;99.90;;;;;;5110690;28;20092;-65
2021/08/19 00:27:01;;;;;;;10.07;9.07;;;16.50;99.90;;;;;;5110764;28;20040;-65
2021/08/19 00:29:28;;;;;;;11.32;8.15;;;16.50;99.90;;;;;;5109397;28;20051;-65
2021/08/19 00:31:54;;;;;;;9.57;8.63;;;16.50;99.90;;;;;;5110372;28;20038;-66
2021/08/19 00:34:19;;;;;;;9.95;8.82;;;16.50;99.90;;;;;;5110445;28;20462;-66
2021/08/19 00:36:45;;;;;;;8.93;8.13;;;16.50;99.90;;;;;;5110553;28;20496;-66
2021/08/19 00:39:11;;;;;;;12.60;8.85;;;16.40;99.90;;;;;;5110468;28;20042;-66
2021/08/19 00:41:37;;;;;;;8.55;7.70;;;16.40;99.90;;;;;;5110461;28;20120;-66
2021/08/19 00:44:05;;;;;;;9.85;8.85;;;16.50;99.90;;;;;;5102817;28;20040;-66
2021/08/19 00:46:33;;;;;;;8.95;8.10;;;16.40;99.90;;;;;;5108890;28;20477;-66
2021/08/19 00:49:06;;;;;;;9.02;8.15;;;16.50;99.90;;;;;;5110130;28;20519;-66
2021/08/19 00:51:44;;;;;;;8.75;7.80;;;16.50;99.90;;;;;;5110528;28;20044;-66
2021/08/19 00:54:16;;;;;;;9.40;8.20;;;16.50;99.90;;;;;;5110198;28;20112;-66
2021/08/19 00:56:42;;;;;;;10.07;8.55;;;16.50;99.90;;;;;;5109157;28;20527;-66
2021/08/19 00:59:12;;;;;;;9.10;8.18;;;16.50;99.90;;;;;;5109826;28;20460;-66
2021/08/19 01:01:38;;;;;;;9.63;7.95;;;16.50;99.90;;;;;;5109249;28;20059;-65
2021/08/19 01:04:05;;;;;;;8.45;7.65;;;16.50;99.90;;;;;;5110052;28;20071;-64
2021/08/19 01:06:36;;;;;;;9.27;7.47;;;16.50;99.90;;;;;;5110318;28;20380;-64
2021/08/19 01:09:06;;;;;;;9.23;8.23;;;16.50;99.90;;;;;;5111109;28;20114;-64
2021/08/19 01:11:34;;;;;;;9.68;8.38;;;16.50;99.90;;;;;;5110206;28;20063;-64
2021/08/19 01:14:00;;;;;;;9.68;8.30;;;16.50;99.90;;;;;;5109234;28;20039;-64
2021/08/19 01:16:28;;;;;;;12.25;9.10;;;16.40;99.90;;;;;;5109387;28;20062;-64
2021/08/19 01:18:54;;;;;;;9.48;8.20;;;16.50;99.90;;;;;;5110785;28;20043;-64
2021/08/19 01:21:19;;;;;;;8.80;7.90;;;16.40;99.90;;;;;;5110280;28;20035;-64
2021/08/19 01:23:47;;;;;;;9.35;8.18;;;16.40;99.90;;;;;;5096702;28;20063;-64
2021/08/19 01:26:16;;;;;;;8.82;7.88;;;16.50;99.90;;;;;;5112019;28;20067;-64
2021/08/19 01:28:44;;;;;;;8.20;7.10;;;16.40;99.90;;;;;;5113101;28;20122;-64
2021/08/19 01:31:15;;;;;;;9.05;7.95;;;16.40;99.90;;;;;;5114350;28;20044;-64
2021/08/19 01:33:44;;;;;;;8.20;7.28;;;16.40;99.90;;;;;;5113669;28;20044;-64
2021/08/19 01:36:11;;;;;;;9.63;7.80;;;16.40;99.90;;;;;;5096365;28;20138;-64
2021/08/19 01:38:38;;;;;;;12.40;8.25;;;16.40;99.90;;;;;;5113428;28;20113;-64
2021/08/19 01:41:04;;;;;;;9.93;8.63;;;16.40;99.90;;;;;;5111359;28;20499;-64
2021/08/19 01:43:33;;;;;;;9.55;8.52;;;16.30;99.90;;;;;;5113640;28;20041;-64
2021/08/19 01:46:14;;;;;;;9.15;8.25;;;16.30;99.90;;;;;;5110653;28;20437;-64
2021/08/19 01:48:47;;;;;;;9.77;7.60;;;16.30;99.90;;;;;;5113534;28;20097;-64
2021/08/19 01:51:14;;;;;;;8.35;7.50;;;16.30;99.90;;;;;;5095857;28;20035;-64
2021/08/19 01:53:43;;;;;;;9.10;7.63;;;16.30;99.90;;;;;;5113477;28;20047;-64
2021/08/19 01:56:09;;;;;;;9.48;7.75;;;16.30;99.90;;;;;;5114175;28;20088;-64
2021/08/19 01:58:35;;;;;;;8.15;7.35;;;16.30;99.90;;;;;;5112049;28;20036;-64
2021/08/19 02:01:01;;;;;;;10.70;7.40;;;16.20;99.90;;;;;;5113445;28;20116;-64
2021/08/19 02:03:27;;;;;;;11.35;7.55;;;16.20;99.90;;;;;;5112616;28;20066;-64
2021/08/19 02:05:53;;;;;;;8.07;7.28;;;16.20;99.90;;;;;;5113785;28;20071;-64
2021/08/19 02:08:19;;;;;;;7.97;7.20;;;16.20;99.90;;;;;;5113161;28;20139;-64
2021/08/19 02:10:45;;;;;;;8.13;7.28;;;16.20;99.90;;;;;;5113122;28;20842;-64
2021/08/19 02:13:12;;;;;;;8.38;6.95;;;16.20;99.90;;;;;;5113052;28;20040;-63
2021/08/19 02:15:37;;;;;;;8.43;7.53;;;16.20;99.90;;;;;;5110439;28;20381;-64
2021/08/19 02:18:03;;;;;;;7.40;6.70;;;16.20;99.90;;;;;;5112276;28;20035;-64
2021/08/19 02:20:29;;;;;;;8.07;7.20;;;16.30;99.90;;;;;;5113733;28;20381;-64
2021/08/19 02:23:03;;;;;;;10.05;7.43;;;16.30;99.90;;;;;;5111575;28;20040;-64
2021/08/19 02:25:29;;;;;;;8.18;7.30;;;16.30;99.90;;;;;;5090510;28;20499;-64
2021/08/19 02:27:56;;;;;;;9.25;8.02;;;16.30;99.90;;;;;;5112442;28;20063;-64
2021/08/19 02:30:21;;;;;;;9.52;7.70;;;16.30;99.90;;;;;;5112371;28;20089;-64
2021/08/19 02:32:53;;;;;;;9.75;8.05;;;16.30;99.90;;;;;;5109956;28;20062;-64
2021/08/19 02:35:19;;;;;;;9.73;7.72;;;16.30;99.90;;;;;;5109191;28;20092;-64
2021/08/19 02:37:45;;;;;;;8.43;7.43;;;16.30;99.90;;;;;;5113426;28;20039;-64
2021/08/19 02:40:11;;;;;;;8.68;7.53;;;16.30;99.90;;;;;;5112133;28;20150;-64
2021/08/19 02:42:37;;;;;;;9.52;8.55;;;16.30;99.90;;;;;;5111172;28;20035;-64
2021/08/19 02:45:04;;;;;;;8.68;7.78;;;16.30;99.90;;;;;;5110891;28;20039;-64
2021/08/19 02:47:29;;;;;;;10.70;8.32;;;16.30;99.90;;;;;;5110933;28;20059;-64
2021/08/19 02:49:55;;;;;;;11.93;9.20;;;16.30;99.90;;;;;;5109911;28;20042;-63
2021/08/19 02:52:23;;;;;;;9.80;8.32;;;16.40;99.90;;;;;;5112832;28;20058;-64
2021/08/19 02:54:49;;;;;;;10.18;9.15;;;16.40;99.90;;;;;;5111151;28;20472;-64
2021/08/19 02:57:15;;;;;;;9.55;8.75;;;16.40;99.90;;;;;;5111781;28;20031;-64
2021/08/19 02:59:41;;;;;;;11.25;9.43;;;16.40;99.90;;;;;;5110307;28;20066;-64
2021/08/19 03:02:06;;;;;;;9.98;9.07;;;16.40;99.90;;;;;;5112299;28;20078;-63
2021/08/19 03:04:32;;;;;;;10.13;9.07;;;16.40;99.90;;;;;;5111515;28;20373;-64
2021/08/19 03:06:57;;;;;;;9.90;8.93;;;16.50;99.90;;;;;;5110054;28;20040;-64
2021/08/19 03:09:23;;;;;;;12.65;10.25;;;16.50;99.90;;;;;;5111103;28;20059;-64
2021/08/19 03:11:49;;;;;;;11.25;9.95;;;16.50;99.90;;;;;;5111818;28;20036;-64
2021/08/19 03:14:14;;;;;;;10.82;9.73;;;16.50;99.90;;;;;;5093259;28;20074;-64
2021/08/19 03:16:40;;;;;;;11.50;10.30;;;16.40;99.90;;;;;;5093879;28;20063;-64
2021/08/19 03:19:05;;;;;;;11.68;10.48;;;16.50;99.90;;;;;;5111377;28;20047;-64
2021/08/19 03:21:31;;;;;;;11.00;10.00;;;16.40;99.90;;;;;;5092872;28;20039;-64
2021/08/19 03:23:59;;;;;;;11.73;10.40;;;16.40;99.90;;;;;;5109659;28;20061;-64
2021/08/19 03:26:25;;;;;;;11.23;9.48;;;16.40;99.90;;;;;;5111125;28;20063;-64
2021/08/19 03:28:51;;;;;;;10.45;9.45;;;16.40;99.90;;;;;;5111995;28;21902;-64
2021/08/19 03:31:16;;;;;;;10.15;9.15;;;16.50;99.90;;;;;;5111644;28;20043;-64
2021/08/19 03:33:43;;;;;;;13.43;9.15;;;16.40;99.90;;;;;;5111248;28;20112;-64
2021/08/19 03:36:10;;;;;;;10.70;9.57;;;16.40;99.90;;;;;;5111473;28;20451;-64
2021/08/19 03:38:36;;;;;;;10.93;9.82;;;16.40;99.90;;;;;;5109737;28;20046;-64
2021/08/19 03:41:01;;;;;;;9.77;8.77;;;16.40;99.90;;;;;;5107774;28;20377;-64
2021/08/19 03:43:27;;;;;;;10.85;8.95;;;16.40;99.90;;;;;;5111920;28;20048;-64
2021/08/19 03:45:53;;;;;;;12.52;9.45;;;16.40;99.90;;;;;;5110491;28;20044;-64
2021/08/19 03:48:19;;;;;;;11.40;9.15;;;16.40;99.90;;;;;;5110218;28;20051;-64
2021/08/19 03:50:44;;;;;;;10.48;8.90;;;16.40;99.90;;;;;;5090638;28;20422;-64
2021/08/19 03:53:11;;;;;;;9.98;8.95;;;16.40;99.90;;;;;;5106128;28;20107;-64
2021/08/19 03:55:37;;;;;;;9.13;8.27;;;16.40;99.90;;;;;;5108812;28;20043;-64
2021/08/19 03:58:03;;;;;;;9.57;8.77;;;16.40;99.90;;;;;;5111760;28;20043;-64
2021/08/19 04:00:30;;;;;;;9.75;8.77;;;16.40;99.90;;;;;;5110505;28;20070;-64
2021/08/19 04:02:56;;;;;;;10.40;9.10;;;16.40;99.90;;;;;;5111171;28;20449;-64
2021/08/19 04:05:22;;;;;;;10.60;9.57;;;16.40;99.90;;;;;;5109828;28;20126;-65
2021/08/19 04:07:48;;;;;;;11.82;10.73;;;16.40;99.90;;;;;;5108988;28;20039;-65
2021/08/19 04:10:14;;;;;;;12.93;10.88;;;16.40;99.90;;;;;;5109790;28;20098;-65
2021/08/19 04:12:41;;;;;;;12.27;11.02;;;16.40;99.90;;;;;;5108876;28;20051;-65
2021/08/19 04:15:07;;;;;;;12.55;11.18;;;16.40;99.90;;;;;;5110192;28;20062;-65
2021/08/19 04:17:33;;;;;;;13.00;11.48;;;16.40;99.90;;;;;;5110353;28;20373;-65
2021/08/19 04:19:59;;;;;;;12.65;10.35;;;16.40;99.90;;;;;;5093199;28;20038;-65
2021/08/19 04:22:24;;;;;;;11.82;10.60;;;16.40;99.90;;;;;;5110843;28;20477;-63
2021/08/19 04:24:50;;;;;;;12.07;10.80;;;16.40;99.90;;;;;;5109914;28;20050;-63
2021/08/19 04:27:16;;;;;;;13.48;12.13;;;16.40;99.90;;;;;;5110986;28;20039;-63
2021/08/19 04:29:41;;;;;;;12.88;11.63;;;16.40;99.90;;;;;;5109519;28;20122;-64
2021/08/19 04:32:07;;;;;;;13.52;12.23;;;16.40;99.90;;;;;;5111260;28;20043;-63
2021/08/19 04:34:33;;;;;;;13.32;11.95;;;16.40;99.90;;;;;;5110069;28;20378;-64
2021/08/19 04:36:59;;;;;;;14.40;12.90;;;16.40;99.90;;;;;;5092130;28;20031;-64
2021/08/19 04:39:27;;;;;;;15.93;14.32;;;16.40;99.90;;;;;;5110039;28;20039;-64
2021/08/19 04:41:56;;;;;;;15.43;13.93;;;16.40;99.90;;;;;;5108782;28;20048;-64
2021/08/19 04:44:22;;;;;;;16.35;14.65;;;16.40;99.90;;;;;;5110506;28;20118;-64
2021/08/19 04:46:47;;;;;;;15.88;14.20;;;16.40;99.90;;;;;;5101565;28;20048;-64
2021/08/19 04:49:13;;;;;;;17.45;15.48;;;16.40;99.90;;;;;;5106610;28;20044;-64
2021/08/19 04:51:39;;;;;;;17.35;15.55;;;16.50;99.90;;;;;;5098112;28;20404;-64
2021/08/19 04:54:05;;;;;;;17.77;15.88;;;16.50;99.90;;;;;;5110508;28;20084;-64
2021/08/19 04:56:37;;;;;;;18.88;16.90;;;16.50;99.90;;;;;;5110390;28;20054;-64
2021/08/19 04:59:07;;;;;;;18.75;16.95;;;16.50;99.90;;;;;;5111287;28;20040;-64
2021/08/19 05:01:33;;;;;;;19.63;17.58;;;16.50;99.90;;;;;;5102941;28;20457;-64
2021/08/19 05:04:01;;;;;;;20.40;17.45;;;16.50;99.90;;;;;;5102948;28;20113;-64
2021/08/19 05:06:28;;;;;;;19.80;17.77;;;16.50;99.90;;;;;;5107895;28;20051;-64
2021/08/19 05:08:54;;;;;;;20.55;18.15;;;16.50;99.90;;;;;;5114113;28;20035;-64
2021/08/19 05:11:24;;;;;;;19.63;17.80;;;16.50;99.90;;;;;;5114155;28;20071;-65
2021/08/19 05:13:51;;;;;;;21.35;19.15;;;16.50;99.90;;;;;;5114502;28;20476;-66
2021/08/19 05:16:17;;;;;;;22.05;18.75;;;16.50;99.90;;;;;;5094781;28;20031;-66
2021/08/19 05:18:46;;;;;;;21.15;18.95;;;16.50;99.90;;;;;;5113989;28;20062;-66
2021/08/19 05:21:13;;;;;;;21.13;18.92;;;16.60;99.90;;;;;;5112613;28;20042;-65
2021/08/19 05:23:39;;;;;;;22.35;20.08;;;16.50;99.90;;;;;;5112386;28;20039;-65
2021/08/19 05:26:05;;;;;;;21.30;19.05;;;16.60;99.90;;;;;;5114435;28;20038;-65
2021/08/19 05:28:31;;;;;;;22.05;19.98;;;16.60;99.90;;;;;;5114031;28;20043;-65
2021/08/19 05:30:57;;;;;;;22.90;20.58;;;16.60;99.90;;;;;;5113849;28;20039;-65
2021/08/19 05:33:22;;;;;;;22.30;20.10;;;16.60;99.90;;;;;;5113714;28;20412;-65
2021/08/19 05:35:49;;;;;;;22.60;20.40;;;16.60;99.90;;;;;;5113449;28;20052;-65
2021/08/19 05:38:14;;;;;;;22.70;20.50;;;16.60;99.90;;;;;;5093793;28;20044;-65
2021/08/19 05:40:42;;;;;;;21.10;19.00;;;16.60;99.90;;;;;;5113334;28;20097;-65
2021/08/19 05:43:08;;;;;;;22.60;20.50;;;16.60;99.90;;;;;;5112220;28;20669;-65
2021/08/19 05:45:34;;;;;;;22.10;19.70;;;16.60;99.90;;;;;;5114444;28;20040;-65
2021/08/19 05:48:01;;;;;;;21.67;19.45;;;16.70;99.90;;;;;;5113546;28;20097;-65
2021/08/19 05:50:28;;;;;;;22.23;19.23;;;16.70;99.90;;;;;;5113223;28;20134;-67
2021/08/19 05:52:54;;;;;;;22.33;19.80;;;16.70;99.90;;;;;;5113724;28;20476;-64
2021/08/19 05:55:20;;;;;;;22.38;20.00;;;16.70;99.90;;;;;;5113669;28;20053;-64
2021/08/19 05:57:51;;;;;;;20.98;18.67;;;16.70;99.90;;;;;;5089125;28;20048;-64
2021/08/19 06:00:20;;;;;;;20.88;18.73;;;16.80;99.90;;;;;;5108454;28;20342;-64
2021/08/19 06:02:51;;;;;;;21.95;18.48;;;16.80;99.90;;;;;;5074185;22;20542;-64
2021/08/19 06:05:17;;;;;;;20.95;18.85;;;16.80;99.90;;;;;;5026868;28;20038;-64
2021/08/19 06:07:44;;;;;;;22.95;20.60;;;16.80;99.90;;;;;;5010953;28;20060;-64
2021/08/19 06:10:11;;;;;;;20.67;18.58;;;16.80;99.90;;;;;;5012204;28;20042;-64
2021/08/19 06:12:41;;;;;;;19.92;17.48;;;16.80;99.90;;;;;;5030215;28;20046;-64
2021/08/19 06:15:08;;;;;;;22.50;19.85;;;16.90;99.90;;;;;;5029700;28;20128;-64
2021/08/19 06:17:36;;;;;;;20.42;18.23;;;16.90;99.90;;;;;;5027370;28;20165;-64
2021/08/19 06:20:04;;;;;;;23.80;19.27;;;16.90;99.90;;;;;;5020748;28;20448;-64
2021/08/19 06:22:41;;;;;;;24.45;19.08;;;16.90;99.90;;;;;;5025564;28;20156;-64
2021/08/19 06:25:08;;;;;;;20.10;17.85;;;16.90;99.90;;;;;;5029700;28;20722;-64
2021/08/19 06:27:34;;;;;;;19.98;17.60;;;17.00;99.90;;;;;;5029682;28;20125;-64
2021/08/19 06:30:00;;;;;;;18.65;16.65;;;17.00;99.90;;;;;;5018574;28;20487;-64
2021/08/19 06:32:26;;;;;;;20.35;16.20;;;17.10;99.90;;;;;;5023357;28;20045;-64
2021/08/19 06:34:51;;;;;;;19.05;15.77;;;17.10;99.90;;;;;;5019361;28;20470;-64
2021/08/19 06:37:18;;;;;;;16.58;14.77;;;17.20;99.90;;;;;;5025265;28;20591;-64
2021/08/19 06:39:43;;;;;;;20.00;16.35;;;17.30;99.90;;;;;;5028332;28;20045;-64
2021/08/19 06:42:09;;;;;;;15.18;13.68;;;17.30;99.90;;;;;;5026555;28;20068;-64
2021/08/19 06:44:35;;;;;;;15.65;13.95;;;17.40;99.90;;;;;;5019781;28;20390;-64
2021/08/19 06:47:00;;;;;;;15.10;12.65;;;17.40;99.90;;;;;;5022265;28;20041;-64
2021/08/19 06:49:26;;;;;;;13.27;11.63;;;17.40;99.90;;;;;;5028465;28;20045;-64
2021/08/19 06:51:52;;;;;;;14.70;12.25;;;17.40;99.90;;;;;;5025950;28;20068;-64
2021/08/19 06:54:18;;;;;;;12.68;11.20;;;17.40;99.90;;;;;;5016991;28;20037;-64
2021/08/19 06:56:43;;;;;;;13.38;10.65;;;17.40;99.90;;;;;;5020221;28;20080;-64
2021/08/19 06:59:09;;;;;;;11.60;10.40;;;17.40;99.90;;;;;;5016146;28;20483;-64
2021/08/19 07:01:35;;;;;;;10.20;9.15;;;17.40;99.90;;;;;;5022016;28;20041;-64
2021/08/19 07:04:00;;;;;;;9.95;8.95;;;17.40;99.90;;;;;;5025842;28;20116;-64
2021/08/19 07:06:26;;;;;;;11.32;9.35;;;17.40;99.90;;;;;;5039033;28;20047;-68
2021/08/19 07:08:51;;;;;;;11.55;10.13;;;17.50;99.90;;;;;;5016670;28;20128;-68
2021/08/19 07:11:17;;;;;;;10.38;8.85;;;17.50;99.90;;;;;;5021692;28;20037;-68
2021/08/19 07:13:43;;;;;;;11.25;10.10;;;17.60;99.90;;;;;;5023459;28;20057;-68
2021/08/19 07:16:09;;;;;;;10.10;9.20;;;17.60;99.90;;;;;;5037683;28;20036;-68
2021/08/19 07:18:35;;;;;;;10.00;8.80;;;17.70;99.90;;;;;;5025875;28;20037;-68
2021/08/19 07:21:00;;;;;;;9.18;7.68;;;17.80;99.90;;;;;;5020527;28;20052;-68
2021/08/19 07:23:26;;;;;;;9.27;8.40;;;17.90;99.90;;;;;;5023453;28;20125;-68
2021/08/19 07:25:52;;;;;;;6.93;6.05;;;17.90;99.90;;;;;;5025909;28;20049;-68
2021/08/19 07:28:18;;;;;;;7.10;6.40;;;18.00;99.90;;;;;;5020011;28;20042;-68
2021/08/19 07:30:44;;;;;;;6.93;6.18;;;18.00;99.90;;;;;;5041052;28;20114;-71
2021/08/19 07:33:11;;;;;;;7.55;6.60;;;18.00;99.90;;;;;;5022952;28;20038;-71
2021/08/19 07:35:37;;;;;;;7.20;6.50;;;18.10;99.90;;;;;;5030222;28;20041;-71
2021/08/19 07:38:03;;;;;;;7.57;6.65;;;18.10;99.90;;;;;;5022629;28;20037;-71
2021/08/19 07:40:31;;;;;;;6.95;6.10;;;18.20;99.90;;;;;;5022848;28;20042;-71
2021/08/19 07:42:58;;;;;;;6.88;6.18;;;18.20;99.90;;;;;;5017922;28;20042;-71
2021/08/19 07:45:25;;;;;;;8.50;6.78;;;18.30;99.90;;;;;;5011579;28;20575;-71
2021/08/19 07:47:52;;;;;;;7.90;6.70;;;18.30;99.90;;;;;;5012813;28;20037;-71
2021/08/19 07:50:19;;;;;;;8.98;7.22;;;18.30;99.90;;;;;;5019065;28;20041;-71
2021/08/19 07:52:45;;;;;;;7.97;6.90;;;18.30;99.90;;;;;;5012719;28;20038;-71
2021/08/19 07:55:12;;;;;;;9.20;8.23;;;18.30;99.90;;;;;;5023844;28;20599;-71
2021/08/19 07:57:43;;;;;;;8.68;7.80;;;18.30;99.90;;;;;;5035847;28;20041;-71
2021/08/19 08:00:10;;;;;;;7.90;7.10;;;18.30;99.90;;;;;;5067639;28;20493;-71
2021/08/19 08:02:36;;;;;;;8.65;7.75;;;18.30;99.90;;;;;;5028293;28;20510;-71
2021/08/19 08:05:02;;;;;;;7.97;6.97;;;18.30;99.90;;;;;;5028291;28;20120;-71
2021/08/19 08:07:29;;;;;;;7.82;7.03;;;18.30;99.90;;;;;;5009783;28;20109;-71
2021/08/19 08:09:55;;;;;;;7.85;6.80;;;18.30;99.90;;;;;;5008490;28;20471;-71
2021/08/19 08:12:20;;;;;;;7.22;6.13;;;18.40;99.90;;;;;;5023370;28;20378;-67
2021/08/19 08:14:46;;;;;;;6.20;5.60;;;18.50;99.90;;;;;;5064439;28;20044;-68
2021/08/19 08:17:11;;;;;;;4.85;4.43;;;18.50;99.90;;;;;;5040598;28;20486;-68
2021/08/19 08:19:38;;;;;;;5.22;4.72;;;18.70;99.90;;;;;;5041245;28;20449;-68
2021/08/19 08:22:04;;;;;;;5.10;4.70;;;18.80;99.90;;;;;;5110837;28;20046;-68
2021/08/19 08:24:29;;;;;;;5.78;5.28;;;18.90;99.90;;;;;;5110763;28;20036;-68
2021/08/19 08:26:55;;;;;;;5.82;5.32;;;19.00;99.90;;;;;;5079468;28;20041;-68
2021/08/19 08:29:20;;;;;;;5.85;5.32;;;19.10;99.90;;;;;;5026440;28;20105;-68
2021/08/19 08:31:46;;;;;;;5.93;5.43;;;19.30;99.90;;;;;;5017296;28;20117;-68
2021/08/19 08:34:12;;;;;;;6.03;5.53;;;19.40;99.90;;;;;;5027523;28;20578;-68
2021/08/19 08:36:37;;;;;;;4.95;4.55;;;19.50;99.90;;;;;;5034677;28;20038;-68
2021/08/19 08:39:05;;;;;;;5.68;5.15;;;19.40;99.90;;;;;;5030354;28;20114;-67
2021/08/19 08:41:33;;;;;;;5.88;5.30;;;19.40;99.90;;;;;;5030713;28;20418;-68
2021/08/19 08:43:59;;;;;;;4.85;4.45;;;19.30;99.90;;;;;;5030897;28;20050;-69
2021/08/19 08:46:26;;;;;;;5.10;4.70;;;19.30;99.90;;;;;;5031329;28;20069;-66
2021/08/19 08:48:56;;;;;;;5.80;5.20;;;19.30;99.90;;;;;;5031411;28;20059;-67
2021/08/19 08:51:22;;;;;;;5.18;4.68;;;19.40;99.90;;;;;;5030685;28;20041;-67
2021/08/19 08:53:50;;;;;;;5.97;5.30;;;19.40;99.90;;;;;;5024911;28;20094;-66
2021/08/19 08:56:15;;;;;;;5.78;5.28;;;19.50;99.90;;;;;;5016469;28;20038;-67
2021/08/19 08:58:41;;;;;;;6.32;5.15;;;19.50;99.90;;;;;;5013085;28;20046;-67
2021/08/19 09:01:07;;;;;;;6.85;5.35;;;19.60;99.90;;;;;;5031364;28;20038;-67
2021/08/19 09:03:32;;;;;;;5.32;4.75;;;19.70;99.90;;;;;;5029750;28;20150;-66
2021/08/19 09:05:58;;;;;;;6.88;5.30;;;19.80;99.90;;;;;;5031061;28;20442;-67
2021/08/19 09:08:25;;;;;;;5.47;4.88;;;19.70;99.90;;;;;;5030090;28;20090;-67
2021/08/19 09:10:53;;;;;;;5.70;5.20;;;19.70;99.90;;;;;;5025448;28;20481;-66
2021/08/19 09:13:23;;;;;;;5.43;5.03;;;19.70;99.90;;;;;;5011987;28;20113;-71
2021/08/19 09:15:51;;;;;;;4.75;4.35;;;19.90;99.90;;;;;;5017468;28;20045;-71
2021/08/19 09:18:27;;;;;;;5.03;4.53;;;20.10;99.90;;;;;;5029641;28;20394;-71
2021/08/19 09:20:53;;;;;;;5.20;4.70;;;20.20;99.90;;;;;;5026100;28;20038;-71
2021/08/19 09:23:19;;;;;;;5.90;5.40;;;20.30;99.90;;;;;;5010569;28;20038;-71
2021/08/19 09:25:46;;;;;;;6.10;5.60;;;20.60;99.90;;;;;;5010379;28;20038;-72
2021/08/19 09:28:19;;;;;;;6.40;5.60;;;20.90;99.90;;;;;;5012740;28;20041;-71
2021/08/19 09:30:54;;;;;;;5.90;5.30;;;21.00;99.90;;;;;;5030684;28;20057;-71
2021/08/19 09:33:31;;;;;;;6.80;6.05;;;20.90;99.90;;;;;;5030400;28;20045;-71
2021/08/19 09:36:00;;;;;;;7.80;6.88;;;21.00;99.90;;;;;;5030041;28;20530;-71
2021/08/19 09:38:41;;;;;;;8.20;7.30;;;21.00;99.90;;;;;;5030359;28;20038;-71
2021/08/19 09:41:17;;;;;;;8.38;7.03;;;21.00;99.90;;;;;;5030352;28;20118;-71
2021/08/19 09:43:51;;;;;;;7.32;6.63;;;21.00;99.90;;;;;;5023119;28;20414;-72
2021/08/19 09:46:35;;;;;;;9.20;7.55;;;21.00;99.90;;;;;;5010005;28;20056;-71
2021/08/19 09:49:02;;;;;;;7.90;6.68;;;21.00;99.90;;;;;;5021725;28;20041;-71
2021/08/19 09:51:28;;;;;;;7.78;6.20;;;20.80;99.90;;;;;;5030099;28;20041;-71
2021/08/19 09:53:57;;;;;;;8.48;7.57;;;20.70;99.90;;;;;;5026355;28;20037;-72
2021/08/19 09:56:30;;;;;;;8.25;7.03;;;20.50;99.90;;;;;;5017641;28;20042;-72
2021/08/19 09:59:26;;;;;;;10.23;7.75;;;20.50;99.90;;;;;;5033899;28;20036;-71
2021/08/19 10:01:53;;;;;;;8.57;7.78;;;20.40;99.90;;;;;;5021318;28;20041;-71
2021/08/19 10:04:20;;;;;;;9.23;8.40;;;20.50;99.90;;;;;;5030315;28;20403;-72
2021/08/19 10:06:47;;;;;;;16.77;8.90;;;20.50;99.90;;;;;;5028927;28;20116;-73
2021/08/19 10:09:13;;;;;;;10.13;9.13;;;20.60;99.90;;;;;;5028956;28;20041;-72
2021/08/19 10:11:44;;;;;;;11.05;9.43;;;20.50;99.90;;;;;;5029344;28;20116;-72
2021/08/19 10:14:29;;;;;;;13.65;9.98;;;20.40;99.90;;;;;;5029985;28;20490;-72
2021/08/19 10:16:56;;;;;;;13.50;10.15;;;20.20;99.90;;;;;;5039236;28;20073;-72
2021/08/19 10:19:41;;;;;;;13.35;10.00;;;20.10;99.90;;;;;;5069981;28;20030;-72
2021/08/19 10:22:12;;;;;;;12.18;10.85;;;20.10;99.90;;;;;;5029876;28;20041;-71
2021/08/19 10:24:40;;;;;;;14.48;10.13;;;20.10;99.90;;;;;;5010217;28;20057;-71
2021/08/19 10:27:07;;;;;;;11.90;9.45;;;20.10;99.90;;;;;;5018587;28;20041;-71
2021/08/19 10:29:44;;;;;;;10.70;9.23;;;20.10;99.90;;;;;;5029873;28;20045;-72
2021/08/19 10:32:27;;;;;;;11.65;9.50;;;20.10;99.90;;;;;;5029794;28;20471;-72
2021/08/19 10:34:58;;;;;;;10.57;9.48;;;20.00;99.90;;;;;;5029787;28;20029;-72
2021/08/19 10:37:46;;;;;;;12.75;10.93;;;19.90;99.90;;;;;;5024347;28;20489;-72
2021/08/19 10:40:21;;;;;;;5.50;5.00;;;19.80;99.90;;;;;;5015658;28;20037;-72
2021/08/19 10:42:55;;;;;;;4.30;3.90;;;19.50;99.90;;;;;;5020037;28;20046;-72
2021/08/19 10:45:27;;;;;;;4.43;4.03;;;19.40;99.90;;;;;;5026084;28;20378;-72
2021/08/19 10:48:05;;;;;;;5.88;5.22;;;19.10;99.90;;;;;;5028100;28;20547;-73
2021/08/19 10:50:36;;;;;;;5.70;5.30;;;18.90;99.90;;;;;;5022609;28;20041;-72
2021/08/19 10:53:18;;;;;;;12.45;11.35;;;18.70;99.90;;;;;;5012343;28;20677;-72
2021/08/19 10:55:52;;;;;;;8.23;7.63;;;18.50;99.90;;;;;;5021938;28;20080;-71
2021/08/19 10:58:28;;;;;;;7.78;7.10;;;18.60;99.90;;;;;;5025300;28;20045;-71
2021/08/19 11:00:59;;;;;;;6.28;5.78;;;18.50;99.90;;;;;;5022006;28;20465;-71
2021/08/19 11:03:37;;;;;;;5.65;4.88;;;18.40;99.90;;;;;;5027189;28;20505;-72
2021/08/19 11:06:03;;;;;;;5.78;5.28;;;18.00;99.90;;;;;;5025170;28;20046;-72
2021/08/19 11:08:47;;;;;;;5.80;5.25;;;18.20;99.90;;;;;;5022409;28;20042;-71
2021/08/19 11:11:34;;;;;;;7.90;7.15;;;18.20;99.90;;;;;;5015446;28;20029;-71
2021/08/19 11:14:16;;;;;;;5.95;5.45;;;18.40;99.90;;;;;;5022028;28;20034;-72
2021/08/19 11:16:52;;;;;;;7.78;7.10;;;18.50;99.90;;;;;;5023442;28;20033;-72
2021/08/19 11:19:23;;;;;;;5.32;4.82;;;18.60;99.90;;;;;;5025437;28;20065;-73
2021/08/19 11:22:03;;;;;;;5.97;5.47;;;18.70;99.90;;;;;;5025609;28;20184;-73
2021/08/19 11:24:31;;;;;;;6.32;5.72;;;18.70;99.90;;;;;;5017035;28;20037;-72
2021/08/19 11:27:03;;;;;;;7.45;6.85;;;18.70;99.90;;;;;;5016625;28;20044;-72
2021/08/19 11:29:31;;;;;;;6.45;5.85;;;18.80;99.90;;;;;;5020122;28;20037;-72
2021/08/19 11:31:56;;;;;;;5.25;4.70;;;18.80;99.90;;;;;;5012724;28;20295;-72
2021/08/19 11:34:22;;;;;;;4.78;4.32;;;19.00;99.90;;;;;;5007693;28;20509;-72
2021/08/19 11:36:52;;;;;;;5.28;4.53;;;18.90;99.90;;;;;;5018509;28;20042;-73
2021/08/19 11:39:26;;;;;;;5.18;4.65;;;18.80;99.90;;;;;;5017596;28;20386;-72
2021/08/19 11:41:59;;;;;;;4.97;4.47;;;18.90;99.90;;;;;;5016091;28;20056;-72
2021/08/19 11:44:26;;;;;;;4.75;4.35;;;19.00;99.90;;;;;;5017344;28;20087;-71
2021/08/19 11:46:59;;;;;;;5.60;5.00;;;19.10;99.90;;;;;;5017321;28;20038;-73
2021/08/19 11:49:24;;;;;;;5.70;4.80;;;19.40;99.90;;;;;;5015515;28;20033;-72
2021/08/19 11:52:09;;;;;;;5.05;4.55;;;19.60;99.90;;;;;;5017670;28;20036;-73
2021/08/19 11:54:41;;;;;;;5.53;4.05;;;19.70;99.90;;;;;;5018398;28;20037;-72
2021/08/19 11:57:07;;;;;;;5.10;4.60;;;19.90;99.90;;;;;;5016193;28;20069;-72
2021/08/19 11:59:32;;;;;;;5.47;4.97;;;20.00;99.90;;;;;;5019246;28;20122;-72
2021/08/19 12:01:58;;;;;;;5.20;4.70;;;20.00;99.90;;;;;;5028058;28;20114;-72
2021/08/19 12:04:34;;;;;;;5.93;5.03;;;20.10;99.90;;;;;;5020964;28;20038;-72
2021/08/19 12:07:03;;;;;;;4.78;4.30;;;20.10;99.90;;;;;;5020486;28;20064;-72
2021/08/19 12:09:31;;;;;;;5.30;4.80;;;20.20;99.90;;;;;;5023635;28;20038;-72
2021/08/19 12:11:57;;;;;;;5.35;4.50;;;20.10;99.90;;;;;;5025478;28;20034;-72
2021/08/19 12:14:26;;;;;;;7.03;4.60;;;20.10;99.90;;;;;;5020993;28;20026;-72
2021/08/19 12:16:54;;;;;;;6.63;5.93;;;20.10;99.90;;;;;;5024270;28;20048;-72
2021/08/19 12:19:19;;;;;;;5.68;5.18;;;20.00;99.90;;;;;;5008278;28;20121;-72
2021/08/19 12:21:48;;;;;;;6.22;5.35;;;20.00;99.90;;;;;;5006432;28;20117;-72
2021/08/19 12:24:21;;;;;;;5.03;4.60;;;19.80;99.90;;;;;;5014432;28;20042;-72
2021/08/19 12:27:01;;;;;;;5.65;4.43;;;19.80;99.90;;;;;;5016972;28;20042;-72
2021/08/19 12:29:28;;;;;;;8.10;4.93;;;19.80;99.90;;;;;;5015599;28;20048;-72
2021/08/19 12:31:54;;;;;;;6.90;5.30;;;19.70;99.90;;;;;;5017819;28;20045;-72
2021/08/19 12:34:20;;;;;;;5.28;4.82;;;19.70;99.90;;;;;;5017003;28;20037;-72
2021/08/19 12:36:47;;;;;;;7.45;4.97;;;19.70;99.90;;;;;;5018620;28;20129;-72
2021/08/19 12:39:14;;;;;;;6.35;4.65;;;19.70;99.90;;;;;;5013948;28;20151;-72
2021/08/19 12:41:40;;;;;;;7.03;6.03;;;19.70;99.90;;;;;;5018394;28;20037;-72
2021/08/19 12:44:09;;;;;;;6.85;5.85;;;19.60;99.90;;;;;;5016968;28;20037;-72